createdAt,value
2019-04-25T00:02:40.839Z,100237.42
2019-04-25T00:06:05.337Z,100249.13
2019-04-25T00:09:31.726Z,100245.89
2019-04-25T00:12:55.036Z,100257.33
2019-04-25T00:16:22.369Z,100265.86
2019-04-25T00:19:46.402Z,100267.25
2019-04-25T00:23:15.275Z,100255.98
2019-04-25T00:26:43.992Z,100254.37
2019-04-25T00:30:07.571Z,100248.11
2019-04-25T00:33:31.566Z,100240.25
2019-04-25T00:36:54.822Z,100236.97
2019-04-25T00:40:18.330Z,100235.84
2019-04-25T00:43:42.965Z,100235.48
2019-04-25T00:47:06.655Z,100231.95
2019-04-25T00:50:32.525Z,100224.28
2019-04-25T00:53:55.742Z,100212.68
2019-04-25T00:57:19.408Z,100217.22
2019-04-25T01:01:02.882Z,100212.38
2019-04-25T01:04:27.303Z,100214.50
2019-04-25T01:07:52.147Z,100216.93
2019-04-25T01:11:15.449Z,100209.08
2019-04-25T01:14:38.649Z,100207.38
2019-04-25T01:18:02.874Z,100209.55
2019-04-25T01:21:26.030Z,100214.98
2019-04-25T01:24:49.378Z,100222.70
2019-04-25T01:28:13.145Z,100234.03
2019-04-25T01:31:36.607Z,100250.37
2019-04-25T01:35:07.100Z,100239.84
2019-04-25T01:39:04.300Z,100241.20
2019-04-25T01:42:41.145Z,100235.17
2019-04-25T01:46:04.398Z,100237.09
2019-04-25T01:49:27.792Z,100240.44
2019-04-25T01:52:54.382Z,100249.92
2019-04-25T01:56:17.347Z,100247.91
2019-04-25T01:59:40.620Z,100247.90
2019-04-25T02:03:04.854Z,100258.12
2019-04-25T02:06:29.273Z,100258.25
2019-04-25T02:09:54.612Z,100247.67
2019-04-25T02:13:19.466Z,100259.25
2019-04-25T02:16:43.974Z,100245.37
2019-04-25T02:20:07.338Z,100250.77
2019-04-25T02:23:34.144Z,100253.94
2019-04-25T02:26:57.655Z,100240.47
2019-04-25T02:30:25.415Z,100246.70
2019-04-25T02:33:48.714Z,100257.25
2019-04-25T02:37:14.378Z,100264.75
2019-04-25T02:40:36.993Z,100269.41
2019-04-25T02:44:07.638Z,100264.03
2019-04-25T02:47:46.739Z,100278.52
2019-04-25T02:51:16.845Z,100275.80
2019-04-25T02:54:39.854Z,100286.23
2019-04-25T02:58:05.638Z,100277.53
2019-04-25T03:01:30.056Z,100278.62
2019-04-25T03:04:54.547Z,100271.14
2019-04-25T03:08:17.891Z,100278.88
2019-04-25T03:11:45.044Z,100279.48
2019-04-25T03:15:09.995Z,100289.56
2019-04-25T03:18:34.937Z,100287.33
2019-04-25T03:22:01.547Z,100281.19
2019-04-25T03:25:25.375Z,100271.13
2019-04-25T03:28:48.431Z,100260.45
2019-04-25T03:32:14.447Z,100265.73
2019-04-25T03:35:36.616Z,100265.36
2019-04-25T03:39:05.073Z,100260.69
2019-04-25T03:42:30.571Z,100262.17
2019-04-25T03:45:53.709Z,100266.33
2019-04-25T03:49:17.744Z,100270.66
2019-04-25T03:52:40.906Z,100263.91
2019-04-25T03:56:05.841Z,100259.95
2019-04-25T03:59:30.129Z,100269.39
2019-04-25T04:02:53.848Z,100265.83
2019-04-25T04:06:18.133Z,100262.64
2019-04-25T04:09:41.549Z,100265.70
2019-04-25T04:13:06.267Z,100257.72
2019-04-25T04:16:36.041Z,100252.73
2019-04-25T04:20:17.974Z,100261.45
2019-04-25T04:24:00.906Z,100268.56
2019-04-25T04:27:24.069Z,100276.55
2019-04-25T04:30:47.498Z,100287.48
2019-04-25T04:34:10.668Z,100283.92
2019-04-25T04:37:33.823Z,100283.53
2019-04-25T04:40:56.855Z,100277.27
2019-04-25T04:44:20.430Z,100272.61
2019-04-25T04:47:43.580Z,100289.17
2019-04-25T04:51:06.676Z,100295.80
2019-04-25T04:54:30.513Z,100291.37
2019-04-25T04:57:54.255Z,100287.97
2019-04-25T05:01:19.314Z,100300.22
2019-04-25T05:05:05.191Z,100308.91
2019-04-25T05:08:34.192Z,100307.93
2019-04-25T05:12:08.022Z,100311.66
2019-04-25T05:15:31.167Z,100320.98
2019-04-25T05:18:55.368Z,100321.22
2019-04-25T05:22:18.631Z,100335.83
2019-04-25T05:25:41.742Z,100333.64
2019-04-25T05:29:04.767Z,100324.75
2019-04-25T05:32:27.839Z,100319.34
2019-04-25T05:35:51.810Z,100316.59
2019-04-25T05:39:17.339Z,100306.44
2019-04-25T05:43:05.611Z,100306.72
2019-04-25T05:46:31.684Z,100322.77
2019-04-25T05:49:55.079Z,100341.87
2019-04-25T05:53:18.100Z,100324.87
2019-04-25T05:56:41.137Z,100305.94
2019-04-25T06:00:04.970Z,100304.74
2019-04-25T06:03:31.262Z,100319.70
2019-04-25T06:06:55.219Z,100322.13
2019-04-25T06:10:41.061Z,100329.94
2019-04-25T06:14:07.035Z,100349.73
2019-04-25T06:17:53.407Z,100364.00
2019-04-25T06:21:17.326Z,100350.78
2019-04-25T06:24:45.690Z,100356.05
2019-04-25T06:28:11.683Z,100363.98
2019-04-25T06:31:34.830Z,100362.34
2019-04-25T06:35:00.141Z,100360.00
2019-04-25T06:38:26.064Z,100362.31
2019-04-25T06:41:49.995Z,100367.87
2019-04-25T06:45:37.827Z,100346.80
2019-04-25T06:49:13.331Z,100365.37
2019-04-25T06:52:36.817Z,100365.41
2019-04-25T06:56:03.523Z,100364.38
2019-04-25T06:59:27.907Z,100364.55
2019-04-25T07:02:53.144Z,100364.12
2019-04-25T07:06:16.507Z,100370.55
2019-04-25T07:09:39.945Z,100363.28
2019-04-25T07:13:04.303Z,100384.84
2019-04-25T07:16:27.701Z,100381.66
2019-04-25T07:19:54.149Z,100375.72
2019-04-25T07:23:17.354Z,100384.06
2019-04-25T07:27:00.105Z,100399.50
2019-04-25T07:30:50.182Z,100407.55
2019-04-25T07:34:14.202Z,100407.22
2019-04-25T07:37:41.574Z,100424.33
2019-04-25T07:41:03.569Z,100417.58
2019-04-25T07:44:38.163Z,100431.66
2019-04-25T07:47:53.993Z,100428.98
2019-04-25T07:51:17.329Z,100407.75
2019-04-25T07:54:40.378Z,100402.92
2019-04-25T07:58:03.577Z,100408.72
2019-04-25T08:01:26.891Z,100411.71
2019-04-25T08:04:51.255Z,100405.84
2019-04-25T08:08:14.421Z,100406.66
2019-04-25T08:11:38.300Z,100400.06
2019-04-25T08:15:09.242Z,100405.33
2019-04-25T08:18:32.925Z,100405.77
2019-04-25T08:21:57.354Z,100409.39
2019-04-25T08:25:21.145Z,100418.31
2019-04-25T08:28:54.335Z,100417.93
2019-04-25T08:32:10.269Z,100429.28
2019-04-25T08:35:35.215Z,100420.83
2019-04-25T08:39:00.910Z,100435.28
2019-04-25T08:42:24.669Z,100429.56
2019-04-25T08:45:51.296Z,100420.40
2019-04-25T08:49:23.974Z,100434.38
2019-04-25T08:52:47.212Z,100445.37
2019-04-25T08:56:15.782Z,100440.52
2019-04-25T08:59:52.235Z,100443.11
2019-04-25T09:03:17.290Z,100435.23
2019-04-25T09:06:40.432Z,100432.17
2019-04-25T09:10:03.982Z,100442.64
2019-04-25T09:13:29.049Z,100427.50
2019-04-25T09:16:53.371Z,100435.77
2019-04-25T09:20:17.052Z,100441.77
2019-04-25T09:23:41.576Z,100447.86
2019-04-25T09:27:04.714Z,100444.92
2019-04-25T09:30:30.589Z,100456.95
2019-04-25T09:33:55.760Z,100446.70
2019-04-25T09:37:18.946Z,100452.98
2019-04-25T09:40:42.224Z,100447.27
2019-04-25T09:44:07.350Z,100445.52
2019-04-25T09:47:35.592Z,100437.39
2019-04-25T09:51:08.447Z,100431.16
2019-04-25T09:54:38.082Z,100423.16
2019-04-25T09:58:08.576Z,100431.54
2019-04-25T10:01:31.787Z,100432.20
2019-04-25T10:04:55.239Z,100428.69
2019-04-25T10:08:19.711Z,100437.29
2019-04-25T10:11:43.980Z,100429.75
2019-04-25T10:15:50.373Z,100427.30
2019-04-25T10:19:13.624Z,100431.83
2019-04-25T10:22:36.764Z,100416.13
2019-04-25T10:26:03.868Z,100425.62
2019-04-25T10:29:39.139Z,100424.16
2019-04-25T10:32:53.183Z,100433.23
2019-04-25T10:36:16.820Z,100424.64
2019-04-25T10:39:40.115Z,100424.63
2019-04-25T10:43:04.462Z,100426.25
2019-04-25T10:46:27.526Z,100413.05
2019-04-25T10:49:50.640Z,100423.42
2019-04-25T10:53:13.948Z,100394.00
2019-04-25T10:56:37.154Z,100392.72
2019-04-25T11:00:07.607Z,100397.52
2019-04-25T11:03:49.428Z,100400.33
2019-04-25T11:07:13.649Z,100396.92
2019-04-25T11:10:37.030Z,100392.52
2019-04-25T11:14:03.294Z,100402.84
2019-04-25T11:17:26.762Z,100396.41
2019-04-25T11:20:50.388Z,100397.13
2019-04-25T11:24:14.291Z,100403.99
2019-04-25T11:27:37.834Z,100408.72
2019-04-25T11:31:02.064Z,100403.46
2019-04-25T11:34:25.522Z,100395.41
2019-04-25T11:37:50.623Z,100402.97
2019-04-25T11:41:15.298Z,100406.75
2019-04-25T11:44:38.372Z,100405.98
2019-04-25T11:48:02.018Z,100392.56
2019-04-25T11:51:26.354Z,100392.69
2019-04-25T11:54:50.051Z,100383.16
2019-04-25T11:58:14.288Z,100379.22
2019-04-25T12:01:37.817Z,100372.16
2019-04-25T12:05:00.933Z,100362.27
2019-04-25T12:08:24.336Z,100348.23
2019-04-25T12:11:48.572Z,100346.78
2019-04-25T12:15:13.248Z,100337.86
2019-04-25T12:18:37.276Z,100330.05
2019-04-25T12:22:04.024Z,100329.78
2019-04-25T12:25:27.513Z,100328.28
2019-04-25T12:28:51.434Z,100308.38
2019-04-25T12:32:14.846Z,100306.38
2019-04-25T12:35:38.700Z,100313.98
2019-04-25T12:39:03.399Z,100311.45
2019-04-25T12:42:31.581Z,100319.98
2019-04-25T12:46:02.970Z,100309.73
2019-04-25T12:49:25.989Z,100297.64
2019-04-25T12:52:49.219Z,100289.73
2019-04-25T12:56:12.692Z,100296.28
2019-04-25T12:59:35.759Z,100299.26
2019-04-25T13:03:00.290Z,100285.77
2019-04-25T13:06:23.874Z,100297.27
2019-04-25T13:09:48.300Z,100305.17
2019-04-25T13:13:14.634Z,100280.05
2019-04-25T13:16:37.154Z,100279.38
2019-04-25T13:20:01.652Z,100281.98
2019-04-25T13:23:26.176Z,100274.06
2019-04-25T13:26:56.948Z,100273.71
2019-04-25T13:30:43.148Z,100282.60
2019-04-25T13:34:14.157Z,100272.52
2019-04-25T13:37:37.441Z,100281.89
2019-04-25T13:41:04.088Z,100281.25
2019-04-25T13:44:27.581Z,100289.27
2019-04-25T13:47:50.896Z,100280.53
2019-04-25T13:51:14.238Z,100293.17
2019-04-25T13:54:37.521Z,100287.73
2019-04-25T13:58:00.877Z,100290.00
2019-04-25T14:01:24.687Z,100283.06
2019-04-25T14:04:48.852Z,100286.30
2019-04-25T14:08:13.443Z,100291.45
2019-04-25T14:11:38.040Z,100287.36
2019-04-25T14:15:03.822Z,100297.34
2019-04-25T14:18:50.282Z,100292.73
2019-04-25T14:22:16.609Z,100289.56
2019-04-25T14:25:39.665Z,100298.61
2019-04-25T14:29:04.230Z,100297.47
2019-04-25T14:32:28.896Z,100287.34
2019-04-25T14:35:53.334Z,100289.55
2019-04-25T14:39:17.991Z,100287.38
2019-04-25T14:42:41.013Z,100292.20
2019-04-25T14:46:04.344Z,100294.99
2019-04-25T14:49:28.301Z,100298.81
2019-04-25T14:52:51.598Z,100296.46
2019-04-25T14:56:43.386Z,100303.50
2019-04-25T15:00:12.978Z,100314.38
2019-04-25T15:03:36.514Z,100306.88
2019-04-25T15:07:01.998Z,100304.05
2019-04-25T15:10:25.139Z,100305.48
2019-04-25T15:13:48.955Z,100306.42
2019-04-25T15:17:12.499Z,100314.66
2019-04-25T15:20:35.570Z,100314.36
2019-04-25T15:24:00.604Z,100322.17
2019-04-25T15:27:24.118Z,100325.07
2019-04-25T15:30:49.126Z,100319.38
2019-04-25T15:34:12.411Z,100330.95
2019-04-25T15:37:51.151Z,100332.30
2019-04-25T15:41:21.641Z,100334.53
2019-04-25T15:44:47.490Z,100332.94
2019-04-25T15:48:10.705Z,100348.28
2019-04-25T15:51:33.759Z,100340.34
2019-04-25T15:55:06.436Z,100318.47
2019-04-25T15:58:21.814Z,100337.55
2019-04-25T16:01:45.363Z,100326.59
2019-04-25T16:05:09.077Z,100331.92
2019-04-25T16:08:33.001Z,100332.44
2019-04-25T16:11:56.203Z,100336.63
2019-04-25T16:15:19.441Z,100343.09
2019-04-25T16:18:43.721Z,100334.23
2019-04-25T16:22:07.185Z,100339.61
2019-04-25T16:25:33.290Z,100326.23
2019-04-25T16:28:57.036Z,100325.98
2019-04-25T16:32:21.986Z,100328.19
2019-04-25T16:35:45.001Z,100341.98
2019-04-25T16:39:10.170Z,100355.89
2019-04-25T16:42:35.917Z,100359.34
2019-04-25T16:46:02.147Z,100361.69
2019-04-25T16:49:25.389Z,100371.41
2019-04-25T16:52:48.567Z,100370.30
2019-04-25T16:56:12.028Z,100390.03
2019-04-25T16:59:35.594Z,100392.00
2019-04-25T17:03:01.679Z,100386.00
2019-04-25T17:06:24.938Z,100384.20
2019-04-25T17:09:47.948Z,100396.84
2019-04-25T17:13:11.158Z,100398.91
2019-04-25T17:17:01.781Z,100409.20
2019-04-25T17:20:30.667Z,100403.72
2019-04-25T17:23:59.653Z,100413.45
2019-04-25T17:27:22.968Z,100408.34
2019-04-25T17:30:48.621Z,100430.40
2019-04-25T17:34:21.495Z,100425.09
2019-04-25T17:37:49.448Z,100431.99
2019-04-25T17:41:12.605Z,100434.67
2019-04-25T17:44:36.347Z,100431.03
2019-04-25T17:48:02.145Z,100443.95
2019-04-25T17:51:25.356Z,100451.02
2019-04-25T17:54:48.780Z,100459.17
2019-04-25T17:58:11.840Z,100457.30
2019-04-25T18:01:35.808Z,100449.96
2019-04-25T18:05:01.374Z,100420.94
2019-04-25T18:08:25.117Z,100439.60
2019-04-25T18:11:48.156Z,100459.92
2019-04-25T18:15:13.135Z,100462.36
2019-04-25T18:18:45.971Z,100459.23
2019-04-25T18:22:27.614Z,100446.91
2019-04-25T18:26:22.515Z,100446.84
2019-04-25T18:29:46.319Z,100451.73
2019-04-25T18:33:29.088Z,100447.91
2019-04-25T18:37:03.071Z,100472.83
2019-04-25T18:40:52.238Z,100493.44
2019-04-25T18:44:16.398Z,100514.55
2019-04-25T18:47:40.356Z,100521.47
2019-04-25T18:51:03.736Z,100521.77
2019-04-25T18:55:01.635Z,100547.38
2019-04-25T18:58:46.389Z,100530.95
2019-04-25T19:02:29.819Z,100559.86
2019-04-25T19:06:01.447Z,100580.17
2019-04-25T19:09:24.636Z,100605.80
2019-04-25T19:12:47.712Z,100592.92
2019-04-25T19:16:10.799Z,100618.23
2019-04-25T19:19:33.878Z,100617.38
2019-04-25T19:22:56.984Z,100624.77
2019-04-25T19:26:20.054Z,100612.91
2019-04-25T19:29:43.927Z,100623.04
2019-04-25T19:33:07.742Z,100629.05
2019-04-25T19:36:32.220Z,100626.33
2019-04-25T19:40:23.703Z,100614.89
2019-04-25T19:44:10.702Z,100601.53
2019-04-25T19:47:33.844Z,100619.75
2019-04-25T19:50:57.075Z,100606.97
2019-04-25T19:54:20.199Z,100614.31
2019-04-25T19:57:43.845Z,100650.05
2019-04-25T20:01:07.637Z,100656.11
2019-04-25T20:04:41.824Z,100670.50
2019-04-25T20:08:16.099Z,100682.73
2019-04-25T20:11:47.071Z,100688.70
2019-04-25T20:15:10.500Z,100704.28
2019-04-25T20:18:34.587Z,100682.67
2019-04-25T20:22:02.462Z,100685.38
2019-04-25T20:25:26.772Z,100668.14
2019-04-25T20:28:51.254Z,100660.36
2019-04-25T20:32:14.509Z,100672.16
2019-04-25T20:35:37.726Z,100672.72
2019-04-25T20:39:00.995Z,100664.05
2019-04-25T20:42:26.355Z,100662.57
2019-04-25T20:45:50.241Z,100668.54
2019-04-25T20:49:14.083Z,100652.27
2019-04-25T20:52:38.191Z,100650.50
2019-04-25T20:56:02.282Z,100657.77
2019-04-25T20:59:34.721Z,100655.38
2019-04-25T21:03:00.196Z,100642.55
2019-04-25T21:06:29.510Z,100653.36
2019-04-25T21:09:53.247Z,100662.43
2019-04-25T21:13:23.546Z,100664.34
2019-04-25T21:16:59.287Z,100674.59
2019-04-25T21:20:22.473Z,100661.89
2019-04-25T21:23:45.715Z,100653.98
2019-04-25T21:27:09.142Z,100639.31
2019-04-25T21:30:32.850Z,100646.44
2019-04-25T21:33:56.273Z,100639.72
2019-04-25T21:37:22.593Z,100628.95
2019-04-25T21:41:05.705Z,100628.65
2019-04-25T21:44:31.938Z,100635.67
2019-04-25T21:47:55.079Z,100630.91
2019-04-25T21:51:31.360Z,100632.94
2019-04-25T21:54:55.839Z,100634.57
2019-04-25T21:58:19.269Z,100628.20
2019-04-25T22:01:43.536Z,100639.67
2019-04-25T22:05:07.135Z,100634.16
2019-04-25T22:08:30.598Z,100638.64
2019-04-25T22:11:54.757Z,100672.45
2019-04-25T22:15:19.021Z,100689.64
2019-04-25T22:18:42.395Z,100697.97
2019-04-25T22:22:06.785Z,100698.28
2019-04-25T22:25:32.041Z,100672.08
2019-04-25T22:28:55.461Z,100690.80
2019-04-25T22:32:53.536Z,100687.87
2019-04-25T22:36:21.243Z,100682.95
2019-04-25T22:39:44.284Z,100674.06
2019-04-25T22:43:10.399Z,100661.14
2019-04-25T22:46:33.952Z,100671.37
2019-04-25T22:49:57.226Z,100665.94
2019-04-25T22:53:22.732Z,100661.14
2019-04-25T22:56:45.895Z,100641.09
2019-04-25T23:00:12.857Z,100664.84
2019-04-25T23:03:42.224Z,100644.16
2019-04-25T23:07:05.967Z,100629.86
2019-04-25T23:10:31.214Z,100634.19
2019-04-25T23:13:54.306Z,100631.80
2019-04-25T23:17:18.170Z,100634.41
2019-04-25T23:20:41.578Z,100616.67
2019-04-25T23:24:05.532Z,100634.05
2019-04-25T23:28:06.410Z,100620.84
2019-04-25T23:31:33.917Z,100636.86
2019-04-25T23:34:57.349Z,100652.29
2019-04-25T23:38:20.651Z,100663.69
2019-04-25T23:41:43.727Z,100664.19
2019-04-25T23:45:08.115Z,100643.37
2019-04-25T23:48:31.290Z,100642.77
2019-04-25T23:51:54.644Z,100650.42
2019-04-25T23:55:18.064Z,100658.92
2019-04-25T23:58:41.161Z,100673.33
